createdAt,value
2018-11-28T00:00:40.431Z,17.63
2018-11-28T00:03:09.461Z,15.70
2018-11-28T00:05:39.306Z,17.50
2018-11-28T00:08:24.079Z,15.83
2018-11-28T00:10:54.081Z,16.97
2018-11-28T00:13:23.359Z,16.20
2018-11-28T00:15:52.820Z,16.67
2018-11-28T00:18:22.422Z,16.07
2018-11-28T00:20:51.715Z,17.40
2018-11-28T00:23:21.330Z,15.07
2018-11-28T00:25:50.618Z,17.10
2018-11-28T00:28:20.468Z,16.53
2018-11-28T00:30:50.453Z,15.97
2018-11-28T00:33:20.079Z,14.73
2018-11-28T00:35:49.359Z,16.77
2018-11-28T00:38:18.656Z,15.83
2018-11-28T00:40:47.915Z,14.80
2018-11-28T00:43:17.239Z,16.47
2018-11-28T00:45:47.459Z,17.00
2018-11-28T00:48:16.738Z,14.30
2018-11-28T00:50:47.290Z,14.67
2018-11-28T00:53:16.582Z,15.30
2018-11-28T00:55:48.477Z,13.90
2018-11-28T00:58:15.340Z,14.37
2018-11-28T01:00:44.664Z,14.83
2018-11-28T01:03:13.955Z,14.33
2018-11-28T01:05:43.289Z,13.80
2018-11-28T01:08:12.991Z,14.23
2018-11-28T01:10:42.265Z,14.27
2018-11-28T01:13:11.805Z,15.03
2018-11-28T01:15:41.079Z,14.40
2018-11-28T01:18:10.576Z,14.43
2018-11-28T01:20:40.262Z,14.73
2018-11-28T01:23:09.548Z,13.00
2018-11-28T01:25:38.852Z,14.60
2018-11-28T01:28:08.822Z,14.20
2018-11-28T01:30:38.162Z,14.83
2018-11-28T01:33:07.452Z,13.10
2018-11-28T01:35:37.302Z,13.87
2018-11-28T01:38:07.386Z,13.67
2018-11-28T01:40:36.700Z,12.83
2018-11-28T01:43:07.242Z,14.20
2018-11-28T01:45:36.271Z,14.37
2018-11-28T01:48:05.734Z,12.70
2018-11-28T01:50:34.967Z,14.57
2018-11-28T01:53:04.295Z,15.20
2018-11-28T01:55:33.590Z,13.50
2018-11-28T01:58:03.774Z,13.73
2018-11-28T02:00:33.109Z,14.70
2018-11-28T02:03:03.283Z,13.90
2018-11-28T02:05:32.830Z,13.83
2018-11-28T02:08:02.316Z,13.57
2018-11-28T02:10:32.120Z,14.33
2018-11-28T02:13:01.389Z,13.03
2018-11-28T02:15:30.683Z,12.77
2018-11-28T02:17:59.972Z,13.30
2018-11-28T02:20:29.627Z,13.57
2018-11-28T02:22:58.891Z,14.30
2018-11-28T02:25:28.182Z,12.90
2018-11-28T02:27:57.443Z,14.17
2018-11-28T02:30:26.759Z,13.27
2018-11-28T02:32:56.205Z,11.10
2018-11-28T02:35:25.671Z,11.57
2018-11-28T02:37:55.073Z,11.43
2018-11-28T02:40:24.447Z,12.17
2018-11-28T02:42:53.746Z,10.33
2018-11-28T02:45:23.499Z,10.32
2018-11-28T02:47:53.241Z,10.28
2018-11-28T02:50:22.525Z,10.70
2018-11-28T02:52:51.825Z,11.40
2018-11-28T02:55:21.700Z,11.90
2018-11-28T02:57:51.297Z,10.78
2018-11-28T03:00:25.525Z,10.63
2018-11-28T03:02:55.071Z,12.00
2018-11-28T03:05:24.976Z,11.70
2018-11-28T03:07:54.538Z,11.60
2018-11-28T03:10:24.013Z,11.70
2018-11-28T03:12:53.589Z,11.95
2018-11-28T03:15:54.053Z,10.70
2018-11-28T03:18:24.170Z,9.38
2018-11-28T03:20:53.716Z,10.50
2018-11-28T03:23:23.602Z,9.95
2018-11-28T03:25:53.805Z,9.90
2018-11-28T03:28:23.369Z,10.20
2018-11-28T03:30:52.940Z,12.20
2018-11-28T03:33:23.302Z,10.55
2018-11-28T03:35:53.194Z,12.58
2018-11-28T03:38:22.754Z,12.65
2018-11-28T03:40:52.333Z,12.15
2018-11-28T03:43:22.950Z,11.28
2018-11-28T03:45:52.495Z,11.33
2018-11-28T03:48:22.662Z,11.65
2018-11-28T03:50:52.228Z,10.00
2018-11-28T03:53:21.794Z,10.10
2018-11-28T03:55:51.380Z,9.83
2018-11-28T03:58:20.654Z,9.70
2018-11-28T04:00:50.241Z,10.50
2018-11-28T04:03:19.810Z,9.05
2018-11-28T04:05:49.356Z,10.45
2018-11-28T04:08:18.712Z,10.50
2018-11-28T04:10:50.081Z,8.70
2018-11-28T04:13:19.634Z,9.05
2018-11-28T04:15:49.163Z,10.00
2018-11-28T04:18:19.445Z,9.30
2018-11-28T04:20:49.025Z,9.85
2018-11-28T04:23:18.811Z,8.65
2018-11-28T04:25:48.545Z,9.88
2018-11-28T04:28:18.080Z,9.18
2018-11-28T04:30:47.638Z,9.85
2018-11-28T04:33:17.158Z,8.48
2018-11-28T04:35:46.694Z,8.70
2018-11-28T04:38:16.214Z,7.62
2018-11-28T04:40:45.932Z,7.12
2018-11-28T04:43:15.531Z,6.78
2018-11-28T04:45:45.778Z,5.90
2018-11-28T04:48:15.326Z,7.17
2018-11-28T04:50:44.875Z,6.47
2018-11-28T04:53:14.300Z,7.10
2018-11-28T04:55:44.780Z,8.38
2018-11-28T04:58:15.439Z,7.12
2018-11-28T05:00:45.711Z,6.80
2018-11-28T05:03:15.253Z,6.90
2018-11-28T05:05:44.818Z,7.05
2018-11-28T05:08:14.407Z,8.48
2018-11-28T05:10:43.988Z,7.40
2018-11-28T05:13:13.554Z,11.28
2018-11-28T05:15:43.121Z,8.70
2018-11-28T05:18:12.735Z,7.08
2018-11-28T05:20:42.305Z,8.95
2018-11-28T05:23:12.346Z,8.90
2018-11-28T05:25:42.222Z,7.80
2018-11-28T05:28:11.756Z,10.28
2018-11-28T05:30:41.338Z,9.78
2018-11-28T05:33:11.829Z,13.40
2018-11-28T05:35:41.410Z,14.98
2018-11-28T05:38:13.312Z,15.00
2018-11-28T05:40:43.759Z,12.35
2018-11-28T05:43:13.756Z,13.85
2018-11-28T05:45:43.632Z,13.05
2018-11-28T05:48:13.200Z,16.20
2018-11-28T05:50:44.183Z,11.90
2018-11-28T05:53:13.772Z,14.85
2018-11-28T05:55:43.836Z,16.48
2018-11-28T05:58:13.402Z,16.07
2018-11-28T06:00:42.840Z,16.80
2018-11-28T06:03:13.863Z,17.05
2018-11-28T06:05:48.761Z,18.02
2018-11-28T06:08:19.290Z,17.10
2018-11-28T06:10:48.821Z,15.85
2018-11-28T06:13:18.117Z,17.63
2018-11-28T06:15:47.420Z,16.57
2018-11-28T06:18:16.991Z,16.10
2018-11-28T06:20:46.615Z,19.03
2018-11-28T06:23:15.895Z,19.40
2018-11-28T06:25:45.535Z,18.37
2018-11-28T06:28:14.836Z,19.97
2018-11-28T06:30:44.420Z,16.10
2018-11-28T06:33:13.735Z,17.00
2018-11-28T06:35:43.058Z,19.30
2018-11-28T06:38:12.332Z,15.73
2018-11-28T06:40:46.200Z,18.52
2018-11-28T06:43:15.776Z,16.48
2018-11-28T06:45:45.347Z,19.25
2018-11-28T06:48:14.631Z,17.37
2018-11-28T06:50:43.902Z,16.40
2018-11-28T06:53:13.346Z,17.37
2018-11-28T06:55:42.699Z,16.60
2018-11-28T06:58:12.332Z,14.70
2018-11-28T07:00:41.904Z,18.42
2018-11-28T07:03:11.199Z,17.90
2018-11-28T07:05:41.063Z,16.40
2018-11-28T07:08:10.676Z,16.65
2018-11-28T07:10:40.664Z,14.90
2018-11-28T07:13:10.687Z,17.50
2018-11-28T07:15:40.071Z,15.50
2018-11-28T07:18:20.485Z,17.30
2018-11-28T07:20:49.909Z,16.83
2018-11-28T07:23:19.098Z,18.10
2018-11-28T07:25:48.346Z,18.13
2018-11-28T07:28:17.898Z,19.93
2018-11-28T07:30:47.543Z,17.53
2018-11-28T07:33:16.835Z,18.90
2018-11-28T07:35:46.148Z,15.30
2018-11-28T07:38:16.173Z,18.20
2018-11-28T07:40:45.773Z,19.30
2018-11-28T07:43:15.245Z,18.77
2018-11-28T07:45:47.288Z,19.47
2018-11-28T07:48:16.853Z,17.90
2018-11-28T07:50:47.443Z,17.70
2018-11-28T07:53:15.494Z,15.90
2018-11-28T07:55:45.378Z,19.93
2018-11-28T07:58:14.705Z,19.00
2018-11-28T08:00:44.291Z,18.40
2018-11-28T08:03:13.609Z,17.60
2018-11-28T08:05:42.899Z,17.73
2018-11-28T08:08:12.229Z,16.90
2018-11-28T08:10:41.877Z,18.83
2018-11-28T08:13:11.368Z,19.73
2018-11-28T08:15:40.709Z,18.30
2018-11-28T08:18:10.059Z,19.10
2018-11-28T08:20:39.387Z,20.70
2018-11-28T08:23:08.650Z,19.60
2018-11-28T08:25:38.162Z,18.03
2018-11-28T08:28:07.627Z,21.63
2018-11-28T08:30:37.499Z,18.37
2018-11-28T08:33:06.792Z,18.70
2018-11-28T08:35:36.085Z,20.23
2018-11-28T08:38:06.271Z,18.43
2018-11-28T08:40:35.575Z,19.77
2018-11-28T08:43:04.973Z,20.33
2018-11-28T08:45:34.703Z,18.30
2018-11-28T08:48:04.417Z,18.93
2018-11-28T08:50:35.137Z,18.97
2018-11-28T08:53:05.362Z,19.47
2018-11-28T08:55:34.710Z,19.80
2018-11-28T08:58:04.028Z,20.17
2018-11-28T09:00:33.331Z,19.57
2018-11-28T09:03:02.631Z,18.50
2018-11-28T09:05:31.978Z,18.30
2018-11-28T09:08:01.570Z,18.77
2018-11-28T09:10:30.875Z,18.57
2018-11-28T09:13:04.239Z,16.90
2018-11-28T09:15:31.318Z,18.50
2018-11-28T09:17:59.707Z,17.33
2018-11-28T09:20:29.608Z,19.50
2018-11-28T09:22:59.189Z,18.10
2018-11-28T09:25:28.841Z,19.83
2018-11-28T09:27:58.912Z,18.80
2018-11-28T09:30:28.678Z,18.30
2018-11-28T09:32:58.257Z,17.77
2018-11-28T09:35:27.539Z,18.30
2018-11-28T09:37:56.820Z,16.97
2018-11-28T09:40:27.191Z,16.23
2018-11-28T09:42:58.268Z,17.73
2018-11-28T09:45:27.754Z,17.40
2018-11-28T09:47:57.413Z,16.67
2018-11-28T09:50:27.059Z,17.97
2018-11-28T09:52:56.904Z,16.70
2018-11-28T09:55:28.450Z,15.63
2018-11-28T09:57:58.371Z,17.20
2018-11-28T10:00:28.675Z,20.47
2018-11-28T10:03:00.567Z,18.70
2018-11-28T10:05:31.162Z,18.40
2018-11-28T10:08:00.778Z,18.77
2018-11-28T10:10:30.625Z,17.70
2018-11-28T10:12:59.923Z,17.23
2018-11-28T10:15:35.248Z,18.90
2018-11-28T10:17:59.412Z,16.63
2018-11-28T10:20:28.684Z,16.47
2018-11-28T10:22:58.040Z,16.97
2018-11-28T10:25:27.643Z,17.60
2018-11-28T10:28:02.231Z,17.60
2018-11-28T10:30:33.091Z,19.60
2018-11-28T10:33:02.381Z,19.20
2018-11-28T10:35:31.667Z,18.30
2018-11-28T10:38:01.205Z,17.63
2018-11-28T10:40:30.874Z,17.80
2018-11-28T10:43:00.951Z,19.63
2018-11-28T10:45:31.135Z,20.27
2018-11-28T10:48:00.916Z,18.53
2018-11-28T10:50:30.467Z,18.37
2018-11-28T10:52:59.743Z,18.50
2018-11-28T10:55:29.231Z,18.27
2018-11-28T10:57:58.877Z,17.83
2018-11-28T11:00:36.106Z,18.37
2018-11-28T11:03:12.075Z,19.60
2018-11-28T11:05:46.766Z,19.77
2018-11-28T11:08:21.298Z,18.80
2018-11-28T11:10:56.155Z,17.13
2018-11-28T11:13:30.762Z,16.67
2018-11-28T11:16:00.642Z,19.90
2018-11-28T11:18:30.124Z,18.90
2018-11-28T11:20:59.423Z,19.17
2018-11-28T11:23:28.817Z,17.10
2018-11-28T11:25:58.382Z,18.20
2018-11-28T11:28:27.680Z,18.03
2018-11-28T11:30:57.993Z,17.33
2018-11-28T11:33:27.319Z,18.27
2018-11-28T11:35:56.862Z,19.10
2018-11-28T11:38:26.776Z,18.07
2018-11-28T11:40:56.391Z,18.57
2018-11-28T11:43:25.716Z,20.03
2018-11-28T11:45:55.263Z,18.63
2018-11-28T11:48:24.584Z,18.60
2018-11-28T11:50:54.249Z,17.70
2018-11-28T11:53:23.828Z,19.40
2018-11-28T11:55:53.694Z,18.80
2018-11-28T11:58:23.006Z,17.47
2018-11-28T12:00:52.292Z,19.60
2018-11-28T12:03:21.652Z,19.10
2018-11-28T12:05:54.383Z,20.57
2018-11-28T12:08:24.830Z,19.40
2018-11-28T12:10:53.920Z,21.57
2018-11-28T12:13:23.296Z,20.50
2018-11-28T12:15:53.165Z,19.33
2018-11-28T12:18:22.283Z,19.00
2018-11-28T12:20:55.269Z,18.67
2018-11-28T12:23:24.673Z,20.33
2018-11-28T12:25:54.545Z,19.27
2018-11-28T12:28:24.523Z,18.07
2018-11-28T12:30:53.895Z,20.23
2018-11-28T12:33:23.175Z,19.30
2018-11-28T12:35:52.990Z,20.13
2018-11-28T12:38:22.045Z,16.53
2018-11-28T12:40:51.930Z,19.90
2018-11-28T12:43:21.340Z,17.27
2018-11-28T12:45:51.324Z,18.30
2018-11-28T12:48:21.101Z,17.57
2018-11-28T12:50:50.769Z,17.93
2018-11-28T12:53:20.717Z,18.27
2018-11-28T12:55:50.029Z,17.80
2018-11-28T12:58:20.460Z,18.87
2018-11-28T13:00:50.736Z,18.93
2018-11-28T13:03:20.309Z,20.23
2018-11-28T13:05:49.629Z,17.60
2018-11-28T13:08:18.717Z,18.87
2018-11-28T13:10:48.704Z,18.27
2018-11-28T13:13:18.150Z,19.67
2018-11-28T13:15:47.514Z,20.30
2018-11-28T13:18:16.852Z,21.83
2018-11-28T13:20:46.496Z,19.07
2018-11-28T13:23:15.787Z,20.07
2018-11-28T13:25:45.108Z,18.93
2018-11-28T13:28:14.608Z,20.10
2018-11-28T13:30:43.949Z,17.40
2018-11-28T13:33:13.246Z,19.23
2018-11-28T13:35:42.787Z,17.20
2018-11-28T13:38:12.976Z,18.73
2018-11-28T13:40:43.297Z,17.67
2018-11-28T13:43:12.649Z,19.27
2018-11-28T13:45:44.690Z,16.17
2018-11-28T13:48:14.908Z,17.10
2018-11-28T13:50:44.215Z,17.17
2018-11-28T13:53:15.286Z,16.17
2018-11-28T13:56:30.033Z,17.93
2018-11-28T13:58:17.903Z,16.67
2018-11-28T14:00:47.209Z,19.53
2018-11-28T14:03:16.659Z,18.07
2018-11-28T14:05:46.146Z,13.97
2018-11-28T14:08:15.829Z,16.20
2018-11-28T14:10:45.183Z,17.23
2018-11-28T14:13:15.416Z,18.90
2018-11-28T14:15:45.123Z,16.50
2018-11-28T14:18:16.295Z,17.60
2018-11-28T14:20:46.221Z,19.20
2018-11-28T14:23:15.515Z,17.40
2018-11-28T14:25:45.326Z,17.10
2018-11-28T14:28:14.799Z,19.33
2018-11-28T14:30:45.680Z,16.23
2018-11-28T14:33:15.823Z,17.40
2018-11-28T14:35:45.133Z,16.40
2018-11-28T14:38:14.570Z,18.83
2018-11-28T14:40:44.297Z,17.83
2018-11-28T14:43:13.613Z,16.90
2018-11-28T14:45:43.192Z,15.33
2018-11-28T14:48:12.724Z,18.23
2018-11-28T14:50:42.030Z,17.93
2018-11-28T14:53:11.397Z,15.20
2018-11-28T14:55:41.618Z,17.20
2018-11-28T14:58:12.827Z,16.50
2018-11-28T15:00:42.385Z,16.13
2018-11-28T15:03:14.281Z,17.53
2018-11-28T15:05:56.205Z,18.20
2018-11-28T15:08:28.653Z,14.83
2018-11-28T15:11:06.472Z,17.80
2018-11-28T15:13:35.783Z,15.93
2018-11-28T15:16:05.501Z,18.27
2018-11-28T15:18:34.853Z,17.73
2018-11-28T15:21:04.374Z,18.83
2018-11-28T15:23:33.785Z,19.80
2018-11-28T15:26:03.091Z,18.63
2018-11-28T15:28:32.894Z,17.00
2018-11-28T15:31:02.295Z,19.57
2018-11-28T15:33:31.604Z,17.93
2018-11-28T15:36:00.909Z,18.83
2018-11-28T15:38:30.205Z,17.80
2018-11-28T15:40:59.697Z,18.83
2018-11-28T15:43:28.990Z,20.23
2018-11-28T15:45:58.594Z,18.73
2018-11-28T15:48:27.907Z,17.33
2018-11-28T15:50:57.205Z,17.33
2018-11-28T15:53:26.588Z,20.00
2018-11-28T15:55:56.195Z,18.73
2018-11-28T15:58:25.476Z,16.93
2018-11-28T16:00:54.811Z,20.20
2018-11-28T16:03:24.104Z,20.47
2018-11-28T16:05:53.519Z,16.40
2018-11-28T16:08:22.857Z,17.83
2018-11-28T16:10:52.446Z,17.37
2018-11-28T16:13:21.748Z,19.30
2018-11-28T16:15:54.677Z,19.77
2018-11-28T16:18:24.759Z,21.20
2018-11-28T16:20:54.361Z,20.43
2018-11-28T16:23:24.062Z,18.50
2018-11-28T16:25:53.485Z,19.60
2018-11-28T16:28:22.794Z,19.20
2018-11-28T16:30:53.527Z,20.70
2018-11-28T16:33:23.082Z,19.37
2018-11-28T16:35:52.363Z,21.53
2018-11-28T16:38:21.703Z,18.43
2018-11-28T16:40:51.125Z,17.70
2018-11-28T16:43:20.452Z,18.70
2018-11-28T16:45:49.919Z,20.60
2018-11-28T16:48:19.735Z,19.87
2018-11-28T16:50:49.320Z,19.55
2018-11-28T16:53:18.651Z,17.03
2018-11-28T16:55:48.004Z,19.80
2018-11-28T16:58:17.026Z,20.03
2018-11-28T17:00:46.871Z,18.73
2018-11-28T17:03:16.426Z,18.60
2018-11-28T17:05:46.055Z,18.80
2018-11-28T17:08:15.652Z,20.30
2018-11-28T17:10:44.970Z,20.43
2018-11-28T17:13:14.280Z,19.60
2018-11-28T17:15:44.215Z,19.40
2018-11-28T17:18:14.116Z,19.48
2018-11-28T17:20:44.012Z,20.40
2018-11-28T17:23:13.349Z,20.03
2018-11-28T17:25:42.882Z,20.50
2018-11-28T17:28:12.176Z,20.47
2018-11-28T17:30:41.486Z,19.50
2018-11-28T17:33:11.093Z,20.43
2018-11-28T17:35:40.688Z,20.08
2018-11-28T17:38:10.012Z,22.17
2018-11-28T17:40:39.602Z,21.17
2018-11-28T17:43:09.201Z,21.23
2018-11-28T17:45:38.847Z,18.92
2018-11-28T17:48:08.734Z,20.13
2018-11-28T17:50:39.242Z,19.90
2018-11-28T17:53:12.604Z,20.03
2018-11-28T17:56:00.604Z,22.47
2018-11-28T17:58:29.904Z,21.73
2018-11-28T18:00:59.871Z,21.00
2018-11-28T18:03:29.166Z,20.13
2018-11-28T18:05:59.046Z,20.27
2018-11-28T18:08:29.280Z,22.65
2018-11-28T18:11:09.902Z,21.93
2018-11-28T18:13:39.694Z,19.95
2018-11-28T18:16:09.811Z,20.70
2018-11-28T18:18:39.444Z,21.42
2018-11-28T18:21:08.722Z,19.67
2018-11-28T18:23:39.241Z,20.62
2018-11-28T18:26:10.945Z,22.80
2018-11-28T18:28:40.811Z,21.27
2018-11-28T18:31:10.114Z,20.17
2018-11-28T18:33:39.487Z,20.50
2018-11-28T18:36:09.349Z,18.80
2018-11-28T18:38:38.625Z,24.50
2018-11-28T18:41:08.143Z,21.00
2018-11-28T18:43:52.098Z,22.53
2018-11-28T18:46:22.317Z,19.73
2018-11-28T18:48:51.881Z,21.05
2018-11-28T18:51:21.279Z,18.73
2018-11-28T18:53:51.514Z,20.48
2018-11-28T18:56:21.271Z,21.40
2018-11-28T18:58:50.595Z,22.37
2018-11-28T19:01:19.891Z,21.77
2018-11-28T19:03:49.235Z,22.67
2018-11-28T19:06:18.549Z,21.83
2018-11-28T19:08:47.851Z,20.93
2018-11-28T19:11:17.361Z,19.03
2018-11-28T19:13:46.972Z,18.65
2018-11-28T19:16:16.295Z,20.60
2018-11-28T19:18:45.856Z,21.23
2018-11-28T19:21:15.477Z,20.80
2018-11-28T19:23:46.593Z,17.43
2018-11-28T19:26:16.229Z,18.40
2018-11-28T19:28:45.525Z,20.90
2018-11-28T19:31:15.338Z,20.53
2018-11-28T19:33:46.835Z,17.05
2018-11-28T19:36:16.544Z,19.92
2018-11-28T19:38:46.206Z,15.67
2018-11-28T19:41:24.747Z,20.33
2018-11-28T19:43:54.444Z,20.40
2018-11-28T19:46:24.073Z,20.23
2018-11-28T19:48:54.103Z,19.67
2018-11-28T19:51:23.853Z,19.62
2018-11-28T19:53:53.445Z,20.07
2018-11-28T19:56:23.043Z,19.77
2018-11-28T19:58:52.656Z,20.80
2018-11-28T20:01:22.521Z,19.57
2018-11-28T20:04:10.615Z,18.98
2018-11-28T20:06:40.902Z,19.55
2018-11-28T20:09:17.053Z,20.60
2018-11-28T20:11:46.822Z,18.53
2018-11-28T20:14:15.860Z,21.67
2018-11-28T20:16:46.495Z,20.57
2018-11-28T20:19:17.643Z,20.20
2018-11-28T20:21:46.241Z,18.40
2018-11-28T20:24:15.849Z,20.10
2018-11-28T20:26:45.530Z,19.60
2018-11-28T20:29:15.151Z,21.13
2018-11-28T20:31:44.499Z,19.33
2018-11-28T20:34:14.428Z,20.05
2018-11-28T20:36:45.932Z,20.50
2018-11-28T20:39:15.239Z,20.83
2018-11-28T20:41:44.998Z,20.40
2018-11-28T20:44:14.439Z,20.53
2018-11-28T20:46:43.868Z,18.37
2018-11-28T20:49:13.254Z,17.63
2018-11-28T20:51:46.021Z,20.47
2018-11-28T20:54:17.450Z,20.13
2018-11-28T20:56:46.782Z,20.17
2018-11-28T20:59:17.098Z,17.57
2018-11-28T21:01:46.409Z,19.80
2018-11-28T21:04:16.742Z,21.10
2018-11-28T21:06:46.338Z,20.73
2018-11-28T21:09:15.954Z,19.70
2018-11-28T21:11:46.218Z,22.95
2018-11-28T21:14:16.051Z,23.57
2018-11-28T21:16:45.667Z,24.10
2018-11-28T21:19:15.042Z,22.43
2018-11-28T21:21:44.961Z,21.33
2018-11-28T21:24:14.229Z,22.27
2018-11-28T21:26:43.808Z,23.65
2018-11-28T21:29:13.401Z,21.27
2018-11-28T21:31:42.714Z,22.63
2018-11-28T21:34:12.558Z,22.93
2018-11-28T21:36:41.853Z,20.67
2018-11-28T21:39:11.136Z,20.70
2018-11-28T21:41:40.472Z,20.73
2018-11-28T21:44:09.797Z,21.50
2018-11-28T21:46:39.113Z,20.33
2018-11-28T21:49:08.419Z,20.77
2018-11-28T21:51:38.286Z,23.40
2018-11-28T21:54:07.948Z,18.33
2018-11-28T21:56:39.096Z,20.70
2018-11-28T21:59:08.442Z,20.57
2018-11-28T22:01:37.473Z,19.10
2018-11-28T22:04:07.149Z,19.03
2018-11-28T22:06:36.474Z,19.10
2018-11-28T22:09:08.658Z,19.20
2018-11-28T22:11:38.213Z,19.00
2018-11-28T22:14:07.517Z,16.97
2018-11-28T22:16:37.011Z,19.40
2018-11-28T22:19:06.629Z,18.10
2018-11-28T22:21:36.008Z,18.37
2018-11-28T22:24:05.752Z,16.37
2018-11-28T22:26:35.242Z,19.17
2018-11-28T22:29:05.018Z,19.80
2018-11-28T22:31:34.412Z,18.30
2018-11-28T22:34:03.704Z,18.20
2018-11-28T22:36:33.023Z,18.43
2018-11-28T22:39:02.575Z,17.50
2018-11-28T22:41:31.604Z,18.30
2018-11-28T22:44:00.929Z,19.33
2018-11-28T22:46:30.465Z,18.67
2018-11-28T22:49:00.998Z,20.43
2018-11-28T22:51:30.368Z,18.23
2018-11-28T22:54:00.222Z,18.27
2018-11-28T22:56:29.862Z,18.73
2018-11-28T22:58:59.794Z,17.43
2018-11-28T23:01:43.203Z,17.33
2018-11-28T23:04:12.519Z,18.83
2018-11-28T23:06:42.382Z,17.05
2018-11-28T23:09:12.068Z,18.20
2018-11-28T23:11:41.682Z,16.40
2018-11-28T23:14:11.857Z,18.20
2018-11-28T23:16:41.400Z,18.00
2018-11-28T23:19:10.852Z,17.80
2018-11-28T23:21:40.645Z,17.23
2018-11-28T23:24:09.939Z,18.93
2018-11-28T23:26:39.557Z,16.45
2018-11-28T23:29:09.142Z,17.62
2018-11-28T23:31:38.414Z,18.37
2018-11-28T23:34:07.715Z,18.30
2018-11-28T23:36:37.243Z,18.02
2018-11-28T23:39:07.091Z,19.10
2018-11-28T23:41:36.661Z,16.75
2018-11-28T23:44:06.264Z,17.90
2018-11-28T23:46:35.569Z,17.70
2018-11-28T23:49:05.474Z,15.80
2018-11-28T23:51:35.027Z,17.70
2018-11-28T23:54:05.098Z,17.17
2018-11-28T23:56:34.849Z,17.57
2018-11-28T23:59:05.131Z,17.03
